Time;durP1;ratioP1;P1;durP2;ratioP2;P2;SDS_P1;SDS_P2;PMS_P1;PMS_P2;Temp;Humidity;BMP_temperature;BMP_pressure;BME280_temperature;BME280_humidity;BME280_pressure;Samples;Min_cycle;Max_cycle;Signal;HPM_P1;HPM_P2
2022/05/23 00:01:33;;;;;;;7.53;5.00;;;;;;;;;;5012185;28;20460;-61
2022/05/23 00:03:59;;;;;;;7.60;5.17;;;;;;;;;;5006753;28;20473;-61
2022/05/23 00:06:26;;;;;;;9.50;5.10;;;;;;;;;;5008216;28;20435;-61
2022/05/23 00:08:53;;;;;;;9.03;5.60;;;;;;;;;;5008309;28;20432;-61
2022/05/23 00:11:20;;;;;;;12.93;5.70;;;;;;;;;;5007975;28;20446;-61
2022/05/23 00:13:47;;;;;;;12.67;5.70;;;;;;;;;;5008565;28;21269;-62
2022/05/23 00:16:17;;;;;;;13.03;5.53;;;;;;;;;;5008307;28;20434;-61
2022/05/23 00:18:44;;;;;;;7.10;4.57;;;;;;;;;;5027864;28;20426;-61
2022/05/23 00:21:11;;;;;;;10.73;5.17;;;;;;;;;;5027557;28;20434;-61
2022/05/23 00:23:38;;;;;;;8.07;5.13;;;;;;;;;;5027950;28;20936;-61
2022/05/23 00:26:04;;;;;;;8.90;5.23;;;;;;;;;;5030512;28;20771;-61
2022/05/23 00:28:31;;;;;;;11.50;5.20;;;;;;;;;;5031437;28;20473;-61
2022/05/23 00:30:57;;;;;;;9.37;5.63;;;;;;;;;;5031863;28;20956;-61
2022/05/23 00:36:11;;;;;;;11.97;5.47;;;;;;;;;;5010430;28;20521;-61
2022/05/23 00:38:37;;;;;;;9.00;5.20;;;;;;;;;;5018374;28;20439;-62
2022/05/23 00:44:11;;;;;;;8.10;4.97;;;;;;;;;;5050212;28;20444;-61
2022/05/23 00:46:53;;;;;;;9.17;5.00;;;;;;;;;;5051604;28;20465;-63
2022/05/23 00:49:22;;;;;;;9.83;5.27;;;;;;;;;;5051424;28;20443;-61
2022/05/23 00:51:48;;;;;;;8.73;5.23;;;;;;;;;;5033424;28;20483;-63
2022/05/23 00:54:15;;;;;;;8.60;5.10;;;;;;;;;;5033350;28;20444;-61
2022/05/23 00:56:43;;;;;;;7.03;4.70;;;;;;;;;;5021238;28;20453;-62
2022/05/23 00:59:10;;;;;;;7.63;4.93;;;;;;;;;;4994457;28;20863;-61
2022/05/23 01:01:37;;;;;;;10.23;5.23;;;;;;;;;;5012058;28;20766;-61
2022/05/23 01:04:07;;;;;;;8.87;5.57;;;;;;;;;;5010064;28;20791;-61
2022/05/23 01:06:35;;;;;;;8.83;4.90;;;;;;;;;;4993590;28;20969;-61
2022/05/23 01:09:02;;;;;;;10.50;6.50;;;;;;;;;;5010955;28;20985;-61
2022/05/23 01:11:28;;;;;;;10.50;6.07;;;;;;;;;;5009986;28;20876;-61
2022/05/23 01:13:55;;;;;;;9.43;5.57;;;;;;;;;;5011644;28;21142;-61
2022/05/23 01:16:23;;;;;;;8.60;5.53;;;;;;;;;;4993283;28;20439;-61
2022/05/23 01:18:51;;;;;;;8.50;5.30;;;;;;;;;;4993617;28;20943;-62
2022/05/23 01:21:42;;;;;;;9.30;6.17;;;;;;;;;;5011119;28;20926;-61
2022/05/23 01:24:12;;;;;;;10.37;5.73;;;;;;;;;;5009534;28;20451;-61
2022/05/23 01:26:44;;;;;;;11.07;6.10;;;;;;;;;;4977980;28;20443;-61
2022/05/23 01:29:21;;;;;;;9.23;5.60;;;;;;;;;;5003650;28;20507;-61
2022/05/23 01:31:50;;;;;;;9.77;6.00;;;;;;;;;;5013062;28;20467;-61
2022/05/23 01:34:23;;;;;;;12.20;6.73;;;;;;;;;;5012694;28;20482;-61
2022/05/23 01:37:11;;;;;;;12.00;6.93;;;;;;;;;;5029968;28;20418;-61
2022/05/23 01:40:02;;;;;;;11.73;6.97;;;;;;;;;;5012282;28;21006;-61
2022/05/23 01:42:47;;;;;;;12.13;6.30;;;;;;;;;;5037233;28;20433;-61
2022/05/23 01:45:15;;;;;;;11.33;6.60;;;;;;;;;;5000228;28;20517;-61
2022/05/23 01:48:13;;;;;;;10.33;6.00;;;;;;;;;;5012480;28;20473;-61
2022/05/23 01:50:40;;;;;;;12.00;5.93;;;;;;;;;;5030103;28;20561;-61
2022/05/23 01:53:10;;;;;;;11.03;6.17;;;;;;;;;;5012798;28;20486;-61
2022/05/23 01:55:52;;;;;;;10.27;5.77;;;;;;;;;;5012678;28;20451;-61
2022/05/23 02:01:45;;;;;;;10.97;5.23;;;;;;;;;;5012471;28;20499;-63
2022/05/23 02:04:27;;;;;;;9.40;5.13;;;;;;;;;;5028770;28;20577;-63
2022/05/23 02:06:56;;;;;;;9.17;4.93;;;;;;;;;;5012096;28;20814;-63
2022/05/23 02:09:26;;;;;;;9.40;5.57;;;;;;;;;;5028431;28;20560;-62
2022/05/23 02:12:17;;;;;;;10.40;5.37;;;;;;;;;;5012175;28;20438;-61
2022/05/23 02:14:45;;;;;;;10.30;5.17;;;;;;;;;;5011962;28;20442;-61
2022/05/23 02:17:24;;;;;;;9.63;5.23;;;;;;;;;;5029458;28;20783;-61
2022/05/23 02:19:52;;;;;;;13.67;6.53;;;;;;;;;;5028948;28;20446;-61
2022/05/23 02:22:19;;;;;;;11.87;5.73;;;;;;;;;;5028375;28;20475;-61
2022/05/23 02:24:50;;;;;;;11.27;5.33;;;;;;;;;;5028441;28;20445;-62
2022/05/23 02:27:18;;;;;;;10.43;5.80;;;;;;;;;;5028319;28;20866;-62
2022/05/23 02:29:45;;;;;;;9.43;5.13;;;;;;;;;;5010586;28;20454;-62
2022/05/23 02:32:29;;;;;;;9.37;5.80;;;;;;;;;;5011703;28;20790;-62
2022/05/23 02:35:02;;;;;;;9.50;5.47;;;;;;;;;;5011991;28;20446;-62
2022/05/23 02:37:29;;;;;;;10.73;6.60;;;;;;;;;;5029114;28;20438;-63
2022/05/23 02:39:58;;;;;;;10.73;6.07;;;;;;;;;;4995660;28;20589;-62
2022/05/23 02:42:27;;;;;;;10.17;6.27;;;;;;;;;;5015270;28;20438;-62
2022/05/23 02:44:54;;;;;;;11.83;5.87;;;;;;;;;;5030161;28;20480;-65
2022/05/23 02:47:24;;;;;;;8.00;5.23;;;;;;;;;;4990966;28;20497;-62
2022/05/23 02:49:53;;;;;;;10.00;5.37;;;;;;;;;;4991987;28;20866;-62
2022/05/23 02:52:33;;;;;;;48.50;7.13;;;;;;;;;;4991852;28;20496;-63
2022/05/23 02:55:08;;;;;;;9.77;5.83;;;;;;;;;;5007967;28;20426;-63
2022/05/23 02:57:35;;;;;;;8.97;5.20;;;;;;;;;;4991728;28;20442;-63
2022/05/23 03:00:09;;;;;;;11.67;5.87;;;;;;;;;;4976441;28;20517;-62
2022/05/23 03:05:45;;;;;;;7.83;5.23;;;;;;;;;;4991197;28;20513;-63
2022/05/23 03:08:12;;;;;;;9.63;5.60;;;;;;;;;;4991118;28;20478;-62
2022/05/23 03:10:39;;;;;;;8.87;5.43;;;;;;;;;;4991176;28;20514;-62
2022/05/23 03:13:08;;;;;;;12.93;5.87;;;;;;;;;;5007532;28;20885;-63
2022/05/23 03:15:35;;;;;;;13.17;6.57;;;;;;;;;;5007637;28;20463;-63
2022/05/23 03:18:02;;;;;;;11.63;6.07;;;;;;;;;;5007152;28;20453;-64
2022/05/23 03:20:31;;;;;;;11.17;5.77;;;;;;;;;;5007266;28;21336;-63
2022/05/23 03:28:32;;;;;;;15.10;6.10;;;;;;;;;;5010301;28;20478;-63
2022/05/23 03:31:00;;;;;;;11.70;5.50;;;;;;;;;;5028529;28;21220;-61
2022/05/23 03:33:28;;;;;;;12.37;6.20;;;;;;;;;;5026799;28;20450;-63
2022/05/23 03:35:55;;;;;;;14.77;6.60;;;;;;;;;;5010661;28;21011;-63
2022/05/23 03:38:23;;;;;;;14.50;6.03;;;;;;;;;;5026501;28;20472;-61
2022/05/23 03:40:50;;;;;;;12.43;6.77;;;;;;;;;;5006512;28;20485;-61
2022/05/23 03:43:17;;;;;;;12.67;6.43;;;;;;;;;;5009159;28;20448;-63
2022/05/23 03:45:44;;;;;;;10.93;5.70;;;;;;;;;;5010343;28;20442;-63
2022/05/23 03:48:12;;;;;;;13.70;6.67;;;;;;;;;;5010403;28;20477;-63
2022/05/23 03:50:39;;;;;;;11.40;6.50;;;;;;;;;;5010561;28;20979;-64
2022/05/23 03:53:06;;;;;;;9.67;5.80;;;;;;;;;;5010508;28;20446;-64
2022/05/23 03:55:38;;;;;;;11.70;6.77;;;;;;;;;;5007001;28;20881;-61
2022/05/23 03:58:22;;;;;;;11.60;6.30;;;;;;;;;;5006757;28;20547;-61
2022/05/23 04:01:16;;;;;;;11.13;6.77;;;;;;;;;;5007199;28;20533;-61
2022/05/23 04:03:48;;;;;;;9.50;6.13;;;;;;;;;;5006849;28;20456;-62
2022/05/23 04:06:15;;;;;;;12.13;6.57;;;;;;;;;;5007168;28;20553;-62
2022/05/23 04:08:56;;;;;;;15.27;7.40;;;;;;;;;;5006742;28;20474;-62
2022/05/23 04:11:23;;;;;;;15.00;8.77;;;;;;;;;;5007936;28;20871;-61
2022/05/23 04:13:57;;;;;;;17.53;9.20;;;;;;;;;;5007458;28;20456;-61
2022/05/23 04:16:28;;;;;;;17.73;9.73;;;;;;;;;;5006857;28;20438;-63
2022/05/23 04:18:55;;;;;;;18.13;8.90;;;;;;;;;;5006518;28;20449;-61
2022/05/23 04:21:24;;;;;;;16.33;7.73;;;;;;;;;;4990379;28;20286;-62
2022/05/23 04:23:53;;;;;;;11.80;6.70;;;;;;;;;;5006329;28;21328;-59
2022/05/23 04:26:20;;;;;;;11.37;6.40;;;;;;;;;;5031598;28;21089;-62
2022/05/23 04:28:50;;;;;;;11.83;6.23;;;;;;;;;;5014052;28;20242;-63
2022/05/23 04:31:17;;;;;;;11.63;6.10;;;;;;;;;;5026262;28;20196;-64
2022/05/23 04:37:10;;;;;;;13.30;7.30;;;;;;;;;;5016128;28;20305;-64
2022/05/23 04:39:41;;;;;;;12.23;7.13;;;;;;;;;;5010461;28;20598;-64
2022/05/23 04:42:08;;;;;;;10.33;6.70;;;;;;;;;;5024604;28;20332;-62
2022/05/23 04:44:35;;;;;;;10.63;7.23;;;;;;;;;;5030264;28;20195;-63
2022/05/23 04:49:50;;;;;;;11.67;7.40;;;;;;;;;;5010043;28;20310;-62
2022/05/23 04:52:34;;;;;;;11.83;7.23;;;;;;;;;;5009600;28;20207;-62
2022/05/23 04:55:02;;;;;;;12.20;7.03;;;;;;;;;;5026651;28;20183;-67
2022/05/23 04:57:33;;;;;;;11.23;7.23;;;;;;;;;;5021915;28;20591;-63
2022/05/23 05:00:01;;;;;;;13.00;7.47;;;;;;;;;;5003756;28;20991;-63
2022/05/23 05:02:35;;;;;;;10.73;6.53;;;;;;;;;;4990048;28;20291;-63
2022/05/23 05:05:02;;;;;;;16.97;8.63;;;;;;;;;;5006172;28;20604;-62
2022/05/23 05:07:48;;;;;;;12.83;7.47;;;;;;;;;;4989370;28;20536;-63
2022/05/23 05:10:14;;;;;;;12.20;7.57;;;;;;;;;;5006022;28;20200;-63
2022/05/23 05:12:42;;;;;;;14.40;7.03;;;;;;;;;;5011674;28;20196;-63
2022/05/23 05:15:12;;;;;;;11.17;6.90;;;;;;;;;;5030810;28;20586;-63
2022/05/23 05:17:40;;;;;;;11.97;6.93;;;;;;;;;;5017720;28;20964;-64
2022/05/23 05:20:08;;;;;;;11.73;7.13;;;;;;;;;;5050037;28;20827;-64
2022/05/23 05:22:53;;;;;;;12.07;7.00;;;;;;;;;;5046297;28;20657;-64
2022/05/23 05:25:40;;;;;;;10.53;7.20;;;;;;;;;;5014404;28;20559;-63
2022/05/23 05:28:13;;;;;;;10.93;6.90;;;;;;;;;;5019207;28;20302;-63
2022/05/23 05:30:45;;;;;;;9.10;6.67;;;;;;;;;;5001567;28;21063;-64
2022/05/23 05:33:13;;;;;;;9.07;6.70;;;;;;;;;;5009234;28;20307;-63
2022/05/23 05:35:59;;;;;;;10.33;6.37;;;;;;;;;;5007834;28;21019;-63
2022/05/23 05:38:43;;;;;;;11.70;7.00;;;;;;;;;;5010365;28;20225;-67
2022/05/23 05:41:14;;;;;;;6.97;5.27;;;;;;;;;;5029102;28;20607;-64
2022/05/23 05:43:43;;;;;;;9.83;5.87;;;;;;;;;;5026031;28;20198;-64
2022/05/23 05:46:15;;;;;;;11.77;6.10;;;;;;;;;;5016948;28;20199;-64
2022/05/23 05:48:50;;;;;;;8.30;5.33;;;;;;;;;;5032203;28;20218;-64
2022/05/23 05:51:18;;;;;;;7.00;5.27;;;;;;;;;;5015245;28;20554;-64
2022/05/23 05:54:05;;;;;;;8.73;5.00;;;;;;;;;;5021094;28;20617;-66
2022/05/23 05:56:38;;;;;;;7.13;4.30;;;;;;;;;;5009078;28;20202;-64
2022/05/23 05:59:06;;;;;;;6.10;4.50;;;;;;;;;;5007751;28;20214;-64
2022/05/23 06:01:40;;;;;;;6.30;4.60;;;;;;;;;;5010399;28;20195;-65
2022/05/23 06:04:08;;;;;;;8.07;4.37;;;;;;;;;;5013570;28;21476;-64
2022/05/23 06:12:31;;;;;;;6.90;5.00;;;;;;;;;;5006375;28;20657;-63
2022/05/23 06:15:38;;;;;;;5.83;4.80;;;;;;;;;;5014012;28;20194;-63
2022/05/23 06:18:07;;;;;;;8.17;4.93;;;;;;;;;;5016308;28;20210;-66
2022/05/23 06:20:36;;;;;;;6.17;5.00;;;;;;;;;;5010451;28;20202;-63
2022/05/23 06:23:03;;;;;;;7.57;4.83;;;;;;;;;;5009889;28;20221;-52
2022/05/23 06:25:32;;;;;;;12.83;5.30;;;;;;;;;;5013995;28;20594;-55
2022/05/23 06:28:04;;;;;;;8.57;4.93;;;;;;;;;;5023701;28;20274;-62
2022/05/23 06:30:30;;;;;;;7.83;4.83;;;;;;;;;;5024521;28;20215;-63
2022/05/23 06:33:00;;;;;;;6.13;4.60;;;;;;;;;;5033645;28;20275;-63
2022/05/23 06:35:43;;;;;;;7.07;4.53;;;;;;;;;;5015201;28;20211;-62
2022/05/23 06:38:11;;;;;;;6.40;3.80;;;;;;;;;;5005986;28;20219;-61
2022/05/23 06:41:06;;;;;;;6.67;3.30;;;;;;;;;;5022452;28;20203;-62
2022/05/23 06:44:12;;;;;;;5.17;2.87;;;;;;;;;;5010882;28;20185;-62
2022/05/23 06:46:46;;;;;;;4.23;3.10;;;;;;;;;;5024088;28;20202;-62
2022/05/23 06:49:32;;;;;;;4.40;3.23;;;;;;;;;;5022434;28;20234;-62
2022/05/23 06:52:03;;;;;;;3.77;3.17;;;;;;;;;;5022391;28;20195;-63
2022/05/23 06:54:41;;;;;;;4.53;3.20;;;;;;;;;;4995184;28;20213;-62
2022/05/23 06:57:12;;;;;;;3.77;2.80;;;;;;;;;;5005847;28;20191;-63
2022/05/23 06:59:41;;;;;;;3.90;2.90;;;;;;;;;;5005391;28;20199;-62
2022/05/23 07:02:09;;;;;;;4.03;2.73;;;;;;;;;;5023904;28;20209;-63
2022/05/23 07:13:37;;;;;;;3.83;2.50;;;;;;;;;;5004359;28;20261;-61
2022/05/23 07:16:05;;;;;;;5.80;2.90;;;;;;;;;;5005611;28;20218;-64
2022/05/23 07:18:34;;;;;;;6.03;2.60;;;;;;;;;;5005350;28;20253;-64
2022/05/23 07:21:07;;;;;;;3.37;2.80;;;;;;;;;;5005381;28;20245;-64
2022/05/23 07:23:46;;;;;;;4.40;2.93;;;;;;;;;;5004759;28;20241;-64
2022/05/23 07:26:29;;;;;;;6.90;3.20;;;;;;;;;;5021649;28;20595;-64
2022/05/23 07:28:57;;;;;;;5.80;3.30;;;;;;;;;;5005310;28;20223;-64
2022/05/23 07:31:27;;;;;;;3.23;2.83;;;;;;;;;;5004345;28;20191;-65
2022/05/23 07:33:54;;;;;;;3.40;2.20;;;;;;;;;;4997776;28;20253;-65
2022/05/23 07:36:21;;;;;;;5.13;2.53;;;;;;;;;;5019235;28;20207;-64
2022/05/23 07:38:50;;;;;;;4.03;3.07;;;;;;;;;;5021906;28;20645;-63
2022/05/23 07:41:34;;;;;;;5.43;2.70;;;;;;;;;;5023877;28;20960;-62
2022/05/23 07:44:01;;;;;;;3.83;2.60;;;;;;;;;;5010697;28;20199;-62
2022/05/23 07:46:29;;;;;;;4.30;2.53;;;;;;;;;;5010389;28;20659;-63
2022/05/23 07:48:56;;;;;;;5.00;2.90;;;;;;;;;;5009985;28;20630;-62
2022/05/23 07:51:30;;;;;;;3.90;2.37;;;;;;;;;;5010085;28;20528;-61
2022/05/23 08:02:56;;;;;;;4.80;2.30;;;;;;;;;;5002650;28;20195;-53
2022/05/23 08:05:24;;;;;;;3.93;2.30;;;;;;;;;;4987870;28;20196;-63
2022/05/23 08:07:54;;;;;;;4.80;2.00;;;;;;;;;;5004368;28;20671;-62
2022/05/23 08:10:22;;;;;;;4.17;2.50;;;;;;;;;;5003717;28;20222;-61
2022/05/23 08:12:53;;;;;;;3.57;2.10;;;;;;;;;;5022276;28;20191;-63
2022/05/23 08:15:21;;;;;;;5.57;2.20;;;;;;;;;;5020331;28;20611;-61
2022/05/23 08:17:55;;;;;;;5.10;2.20;;;;;;;;;;5003747;28;20203;-64
2022/05/23 08:20:37;;;;;;;6.13;2.10;;;;;;;;;;5003313;28;20222;-63
2022/05/23 08:23:04;;;;;;;3.13;1.83;;;;;;;;;;5022448;28;20667;-63
2022/05/23 08:25:46;;;;;;;3.50;2.20;;;;;;;;;;5003948;28;20269;-63
2022/05/23 08:28:13;;;;;;;7.43;2.33;;;;;;;;;;5004795;28;20302;-63
2022/05/23 08:30:41;;;;;;;4.30;2.23;;;;;;;;;;5005478;28;20804;-62
2022/05/23 08:33:27;;;;;;;4.33;2.37;;;;;;;;;;5021874;28;20278;-61
2022/05/23 08:36:13;;;;;;;3.77;2.10;;;;;;;;;;5004154;28;20566;-64
2022/05/23 08:38:40;;;;;;;3.97;2.17;;;;;;;;;;5021503;28;20879;-64
2022/05/23 08:41:19;;;;;;;5.10;2.10;;;;;;;;;;5030162;28;20198;-63
2022/05/23 08:44:16;;;;;;;4.40;2.23;;;;;;;;;;5030168;28;21063;-62
2022/05/23 08:47:02;;;;;;;4.17;2.10;;;;;;;;;;5016229;28;20203;-63
2022/05/23 08:49:46;;;;;;;4.57;1.93;;;;;;;;;;5033325;28;20298;-64
2022/05/23 08:52:23;;;;;;;4.73;2.27;;;;;;;;;;5017228;28;20207;-62
2022/05/23 08:55:04;;;;;;;7.23;2.77;;;;;;;;;;5011860;28;20198;-62
2022/05/23 08:58:02;;;;;;;3.93;2.30;;;;;;;;;;5013070;28;20246;-62
2022/05/23 09:00:35;;;;;;;3.57;2.40;;;;;;;;;;5015791;28;20258;-62
2022/05/23 09:03:05;;;;;;;3.30;2.17;;;;;;;;;;5032570;28;20310;-63
2022/05/23 09:05:37;;;;;;;7.57;2.40;;;;;;;;;;5015858;28;20666;-61
2022/05/23 09:08:25;;;;;;;3.73;2.10;;;;;;;;;;5030427;28;20257;-63
2022/05/23 09:10:58;;;;;;;3.20;2.00;;;;;;;;;;5009538;28;20233;-63
2022/05/23 09:13:27;;;;;;;2.70;1.70;;;;;;;;;;5034099;28;20563;-65
2022/05/23 09:15:59;;;;;;;3.90;1.97;;;;;;;;;;5031640;28;20295;-61
2022/05/23 09:18:38;;;;;;;3.00;1.70;;;;;;;;;;5009331;28;20784;-62
2022/05/23 09:21:05;;;;;;;2.53;1.83;;;;;;;;;;5031288;28;20223;-63
2022/05/23 09:23:33;;;;;;;3.33;1.83;;;;;;;;;;5035988;28;20201;-62
2022/05/23 09:26:02;;;;;;;3.87;2.07;;;;;;;;;;5037935;28;20197;-66
2022/05/23 09:28:36;;;;;;;6.53;2.33;;;;;;;;;;5032817;28;20558;-62
2022/05/23 09:31:03;;;;;;;3.17;2.40;;;;;;;;;;5036160;28;20686;-63
2022/05/23 09:33:30;;;;;;;6.97;2.33;;;;;;;;;;5032200;28;20226;-62
2022/05/23 09:36:09;;;;;;;6.43;2.07;;;;;;;;;;5026410;28;20231;-65
2022/05/23 09:38:46;;;;;;;5.03;2.13;;;;;;;;;;5029325;28;20195;-63
2022/05/23 09:47:44;;;;;;;4.17;2.03;;;;;;;;;;4996150;28;20199;-62
2022/05/23 09:47:44;;;;;;;2.80;1.90;;;;;;;;;;5027874;28;20187;-64
2022/05/23 09:50:12;;;;;;;3.73;2.00;;;;;;;;;;5033365;28;20217;-62
2022/05/23 09:53:01;;;;;;;3.73;1.87;;;;;;;;;;5028448;28;20253;-63
2022/05/23 09:55:31;;;;;;;3.80;2.00;;;;;;;;;;5028947;28;20562;-62
2022/05/23 09:58:03;;;;;;;3.00;1.97;;;;;;;;;;5029927;28;20198;-63
2022/05/23 10:00:35;;;;;;;2.10;1.80;;;;;;;;;;5027443;28;20598;-62
2022/05/23 10:03:06;;;;;;;3.43;1.83;;;;;;;;;;5013057;28;20214;-62
2022/05/23 10:05:37;;;;;;;3.60;1.90;;;;;;;;;;5029976;28;21007;-62
2022/05/23 10:08:10;;;;;;;4.07;1.90;;;;;;;;;;5030219;28;20257;-63
2022/05/23 10:10:38;;;;;;;3.03;1.93;;;;;;;;;;5029708;28;20250;-63
2022/05/23 10:13:26;;;;;;;4.03;2.00;;;;;;;;;;5026253;28;20205;-62
2022/05/23 10:15:57;;;;;;;2.70;1.70;;;;;;;;;;5032473;28;20230;-63
2022/05/23 10:18:29;;;;;;;3.20;1.53;;;;;;;;;;5029941;28;20285;-63
2022/05/23 10:20:56;;;;;;;2.87;1.83;;;;;;;;;;5035387;28;20191;-63
2022/05/23 10:23:25;;;;;;;2.20;1.80;;;;;;;;;;5032523;28;20226;-63
2022/05/23 10:25:52;;;;;;;5.03;1.70;;;;;;;;;;5030869;28;20187;-65
2022/05/23 10:28:45;;;;;;;2.77;1.97;;;;;;;;;;5035535;28;20885;-62
2022/05/23 10:31:14;;;;;;;1.83;1.53;;;;;;;;;;5026474;28;20219;-62
2022/05/23 10:33:41;;;;;;;5.17;2.00;;;;;;;;;;5027649;28;20566;-62
2022/05/23 10:36:09;;;;;;;2.23;1.50;;;;;;;;;;5031775;28;20195;-62
2022/05/23 10:44:24;;;;;;;2.17;1.57;;;;;;;;;;5031018;28;20226;-64
2022/05/23 10:46:53;;;;;;;2.13;1.63;;;;;;;;;;5027411;28;20274;-63
2022/05/23 10:49:40;;;;;;;3.30;1.60;;;;;;;;;;5029441;28;20312;-62
2022/05/23 10:52:40;;;;;;;3.47;1.97;;;;;;;;;;5025479;28;20191;-64
2022/05/23 10:55:36;;;;;;;2.70;1.40;;;;;;;;;;4992639;28;20210;-63
2022/05/23 10:58:08;;;;;;;2.73;1.70;;;;;;;;;;5002905;28;20916;-64
2022/05/23 11:00:39;;;;;;;8.10;2.40;;;;;;;;;;5019829;28;20313;-63
2022/05/23 11:03:26;;;;;;;3.43;2.13;;;;;;;;;;5025759;28;20877;-61
2022/05/23 11:05:56;;;;;;;3.23;1.60;;;;;;;;;;4973673;28;20211;-63
2022/05/23 11:08:29;;;;;;;5.17;2.00;;;;;;;;;;5012539;28;20594;-63
2022/05/23 11:11:15;;;;;;;5.33;1.80;;;;;;;;;;5013699;28;21105;-63
2022/05/23 11:13:42;;;;;;;2.63;1.90;;;;;;;;;;5011148;28;20223;-62
2022/05/23 11:16:22;;;;;;;3.00;1.70;;;;;;;;;;5030357;28;20215;-62
2022/05/23 11:19:08;;;;;;;2.63;1.50;;;;;;;;;;5027261;28;20222;-62
2022/05/23 11:21:41;;;;;;;1.90;1.57;;;;;;;;;;5028632;28;20723;-63
2022/05/23 11:24:09;;;;;;;2.10;1.63;;;;;;;;;;5011172;28;20202;-63
2022/05/23 11:26:39;;;;;;;4.73;1.60;;;;;;;;;;5027396;28;20203;-62
2022/05/23 11:34:57;;;;;;;2.23;1.70;;;;;;;;;;5009855;28;20241;-63
2022/05/23 11:39:52;;;;;;;2.10;1.60;;;;;;;;;;5010156;28;20234;-63
2022/05/23 11:42:29;;;;;;;3.13;1.70;;;;;;;;;;5007313;28;20200;-64
2022/05/23 11:47:56;;;;;;;3.50;1.57;;;;;;;;;;5026774;28;20218;-62
2022/05/23 11:50:26;;;;;;;3.60;1.60;;;;;;;;;;5026725;28;20219;-62
2022/05/23 11:53:04;;;;;;;2.43;1.57;;;;;;;;;;5024736;28;20192;-63
2022/05/23 11:55:57;;;;;;;2.97;1.77;;;;;;;;;;5000803;28;20291;-63
2022/05/23 11:58:25;;;;;;;4.20;2.00;;;;;;;;;;5027344;28;20678;-63
2022/05/23 12:01:02;;;;;;;1.80;1.70;;;;;;;;;;5033743;28;20202;-63
2022/05/23 12:03:47;;;;;;;3.50;2.00;;;;;;;;;;5029981;28;20198;-61
2022/05/23 12:06:38;;;;;;;4.03;1.80;;;;;;;;;;5013486;28;20210;-62
2022/05/23 12:09:11;;;;;;;5.47;1.90;;;;;;;;;;5025481;28;20705;-61
2022/05/23 12:11:40;;;;;;;2.30;1.80;;;;;;;;;;5008035;28;20241;-63
2022/05/23 12:14:14;;;;;;;3.13;2.00;;;;;;;;;;5028399;28;20640;-62
2022/05/23 12:17:01;;;;;;;2.37;1.73;;;;;;;;;;5029832;28;20209;-65
2022/05/23 12:19:40;;;;;;;2.90;2.37;;;;;;;;;;5024697;28;20606;-63
2022/05/23 12:22:23;;;;;;;4.30;1.87;;;;;;;;;;5031267;28;20317;-63
2022/05/23 12:25:08;;;;;;;7.23;2.00;;;;;;;;;;5031034;28;20191;-63
2022/05/23 12:27:44;;;;;;;3.87;1.90;;;;;;;;;;5030056;28;20561;-63
2022/05/23 12:30:18;;;;;;;3.07;2.00;;;;;;;;;;5026585;28;20728;-65
2022/05/23 12:32:58;;;;;;;2.60;2.10;;;;;;;;;;5039346;28;20551;-63
2022/05/23 12:35:40;;;;;;;2.30;1.83;;;;;;;;;;5030770;28;20195;-61
2022/05/23 12:38:13;;;;;;;4.93;2.13;;;;;;;;;;5028913;28;20865;-63
2022/05/23 12:40:47;;;;;;;8.97;2.60;;;;;;;;;;5014415;28;20279;-62
2022/05/23 12:43:24;;;;;;;4.23;2.03;;;;;;;;;;5031382;28;20249;-62
2022/05/23 12:46:04;;;;;;;2.87;1.60;;;;;;;;;;5014900;28;20318;-62
2022/05/23 12:48:55;;;;;;;5.40;1.90;;;;;;;;;;5030484;28;20201;-63
2022/05/23 12:51:42;;;;;;;2.90;1.63;;;;;;;;;;5031672;28;20297;-62
2022/05/23 12:54:16;;;;;;;4.47;1.83;;;;;;;;;;5029546;28;21201;-62
2022/05/23 12:56:55;;;;;;;4.90;1.73;;;;;;;;;;5027339;28;20664;-64
2022/05/23 12:59:33;;;;;;;5.00;1.80;;;;;;;;;;5029392;28;20741;-62
2022/05/23 13:02:02;;;;;;;4.10;2.07;;;;;;;;;;5033763;28;20236;-62
2022/05/23 13:04:34;;;;;;;6.20;2.00;;;;;;;;;;5029572;28;20195;-62
2022/05/23 13:07:19;;;;;;;2.33;1.67;;;;;;;;;;5031727;28;20610;-61
2022/05/23 13:09:59;;;;;;;5.43;2.20;;;;;;;;;;5029283;28;20263;-62
2022/05/23 13:12:30;;;;;;;3.73;2.47;;;;;;;;;;5035775;28;20194;-60
2022/05/23 13:15:27;;;;;;;3.53;1.97;;;;;;;;;;5020650;28;20581;-63
2022/05/23 13:22:05;;;;;;;3.20;1.90;;;;;;;;;;5012238;28;20225;-62
2022/05/23 13:23:47;;;;;;;2.67;1.70;;;;;;;;;;5032656;28;20207;-62
2022/05/23 13:26:15;;;;;;;3.47;2.00;;;;;;;;;;5031660;28;20258;-61
2022/05/23 13:29:02;;;;;;;4.03;1.70;;;;;;;;;;5026746;28;20273;-61
2022/05/23 13:31:47;;;;;;;2.73;2.00;;;;;;;;;;5032464;28;20223;-60
2022/05/23 13:34:16;;;;;;;3.57;2.20;;;;;;;;;;5025904;28;20191;-61
2022/05/23 13:36:44;;;;;;;3.70;2.10;;;;;;;;;;5028941;28;20199;-65
2022/05/23 13:39:16;;;;;;;2.37;2.03;;;;;;;;;;5016633;28;20226;-60
2022/05/23 13:41:43;;;;;;;2.70;1.73;;;;;;;;;;5039322;28;21179;-61
2022/05/23 13:44:30;;;;;;;7.20;2.53;;;;;;;;;;5029403;28;20191;-57
2022/05/23 13:47:01;;;;;;;5.83;1.67;;;;;;;;;;5030165;28;20226;-62
2022/05/23 13:49:33;;;;;;;2.00;1.43;;;;;;;;;;5030419;28;20188;-62
2022/05/23 13:52:10;;;;;;;1.73;1.63;;;;;;;;;;5013781;28;20547;-62
2022/05/23 13:54:41;;;;;;;4.83;2.03;;;;;;;;;;5030190;28;20183;-62
2022/05/23 13:57:26;;;;;;;2.07;1.80;;;;;;;;;;5015357;28;20631;-61
2022/05/23 13:59:58;;;;;;;9.37;2.30;;;;;;;;;;5012569;28;20206;-61
2022/05/23 14:02:26;;;;;;;2.53;1.73;;;;;;;;;;5029946;28;20200;-61
2022/05/23 14:04:53;;;;;;;3.70;1.63;;;;;;;;;;5013019;28;20957;-61
2022/05/23 14:07:20;;;;;;;3.53;1.90;;;;;;;;;;5029504;28;20207;-61
2022/05/23 14:09:48;;;;;;;3.40;1.60;;;;;;;;;;5012361;28;20191;-62
2022/05/23 14:12:34;;;;;;;2.67;2.00;;;;;;;;;;5029729;28;20195;-61
2022/05/23 14:15:02;;;;;;;4.63;1.77;;;;;;;;;;5030013;28;20222;-61
2022/05/23 14:17:48;;;;;;;2.77;2.00;;;;;;;;;;5012513;28;20179;-61
2022/05/23 14:20:21;;;;;;;6.30;1.90;;;;;;;;;;5012340;28;20196;-62
2022/05/23 14:22:58;;;;;;;4.33;2.03;;;;;;;;;;5022759;28;20282;-63
2022/05/23 14:25:25;;;;;;;7.90;2.17;;;;;;;;;;5010919;28;20869;-62
2022/05/23 14:27:53;;;;;;;2.57;2.00;;;;;;;;;;5017053;28;20572;-62
2022/05/23 14:30:27;;;;;;;3.20;1.40;;;;;;;;;;5036945;28;21045;-62
2022/05/23 14:33:02;;;;;;;2.43;1.57;;;;;;;;;;5038274;28;20253;-63
2022/05/23 14:35:28;;;;;;;4.03;1.63;;;;;;;;;;5036262;28;20674;-64
2022/05/23 14:37:56;;;;;;;2.30;1.87;;;;;;;;;;5034124;28;20198;-63
2022/05/23 14:40:27;;;;;;;2.97;1.90;;;;;;;;;;5024905;28;20215;-64
2022/05/23 14:42:55;;;;;;;2.17;1.70;;;;;;;;;;5023017;28;20559;-62
2022/05/23 14:45:26;;;;;;;3.73;1.97;;;;;;;;;;5020494;28;20188;-61
2022/05/23 14:48:07;;;;;;;4.10;1.50;;;;;;;;;;5026756;28;20199;-60
2022/05/23 14:50:35;;;;;;;2.00;1.50;;;;;;;;;;5029022;28;20982;-60
2022/05/23 14:55:55;;;;;;;4.10;1.87;;;;;;;;;;5029291;28;20249;-60
2022/05/23 15:01:18;;;;;;;2.97;1.50;;;;;;;;;;5028927;28;20180;-60
2022/05/23 15:03:46;;;;;;;2.70;1.40;;;;;;;;;;5010812;28;20242;-61
2022/05/23 15:06:38;;;;;;;3.60;1.50;;;;;;;;;;5105450;27;20898;-60
2022/05/23 15:09:06;;;;;;;2.57;1.47;;;;;;;;;;5085399;28;20288;-60
2022/05/23 15:11:33;;;;;;;5.00;1.40;;;;;;;;;;5085719;28;20553;-60
2022/05/23 15:14:00;;;;;;;1.53;1.43;;;;;;;;;;5084103;28;21001;-60
2022/05/23 15:16:29;;;;;;;3.17;1.70;;;;;;;;;;5067133;28;20251;-60
2022/05/23 15:19:06;;;;;;;3.17;1.70;;;;;;;;;;5084780;28;20200;-60
2022/05/23 15:21:32;;;;;;;3.00;1.30;;;;;;;;;;5084630;28;20182;-60
2022/05/23 15:24:00;;;;;;;5.27;1.60;;;;;;;;;;5083080;28;20609;-60
2022/05/23 15:26:27;;;;;;;3.77;1.60;;;;;;;;;;5084484;28;20257;-60
2022/05/23 15:29:12;;;;;;;3.30;1.60;;;;;;;;;;5084132;28;20173;-61
2022/05/23 15:31:41;;;;;;;4.23;1.30;;;;;;;;;;5083562;28;20253;-60
2022/05/23 15:34:08;;;;;;;7.93;1.50;;;;;;;;;;5085158;28;20273;-60
2022/05/23 15:36:36;;;;;;;2.97;1.20;;;;;;;;;;5083379;28;20192;-61
2022/05/23 15:39:03;;;;;;;3.07;1.33;;;;;;;;;;5066594;28;20660;-60
2022/05/23 15:41:30;;;;;;;3.77;1.80;;;;;;;;;;5066259;28;20194;-62
2022/05/23 15:43:58;;;;;;;3.07;1.60;;;;;;;;;;5064246;28;20195;-61
2022/05/23 15:46:32;;;;;;;2.43;1.40;;;;;;;;;;5073126;28;20233;-62
2022/05/23 15:48:59;;;;;;;4.17;1.50;;;;;;;;;;5078241;28;20304;-52
2022/05/23 15:51:29;;;;;;;3.07;1.60;;;;;;;;;;5067461;28;20857;-48
2022/05/23 15:53:55;;;;;;;7.47;1.93;;;;;;;;;;5078742;28;20191;-49
2022/05/23 15:56:23;;;;;;;10.57;1.60;;;;;;;;;;5071914;28;20201;-48
2022/05/23 15:58:50;;;;;;;7.90;1.80;;;;;;;;;;5071320;28;20690;-48
2022/05/23 16:01:21;;;;;;;5.53;1.80;;;;;;;;;;5070807;28;20198;-49
2022/05/23 16:03:48;;;;;;;9.00;2.10;;;;;;;;;;5070461;28;20197;-50
2022/05/23 16:06:15;;;;;;;5.40;1.70;;;;;;;;;;5070731;28;20226;-51
2022/05/23 16:08:42;;;;;;;6.80;2.17;;;;;;;;;;5074767;28;20876;-49
2022/05/23 16:11:14;;;;;;;13.10;3.20;;;;;;;;;;5069263;28;20229;-50
2022/05/23 16:13:42;;;;;;;1.73;1.30;;;;;;;;;;5079292;28;20194;-49
2022/05/23 16:16:11;;;;;;;3.27;2.07;;;;;;;;;;5066662;28;20178;-50
2022/05/23 16:18:43;;;;;;;7.30;1.97;;;;;;;;;;5057633;28;20191;-50
2022/05/23 16:21:09;;;;;;;3.67;1.60;;;;;;;;;;5065104;28;20245;-49
2022/05/23 16:23:36;;;;;;;3.43;1.50;;;;;;;;;;5065286;28;20313;-49
2022/05/23 16:26:03;;;;;;;2.10;1.63;;;;;;;;;;5055883;28;20218;-50
2022/05/23 16:28:30;;;;;;;3.87;1.60;;;;;;;;;;5060218;28;20195;-49
2022/05/23 16:30:57;;;;;;;2.20;1.70;;;;;;;;;;5063244;28;20538;-50
2022/05/23 16:38:55;;;;;;;5.80;1.87;;;;;;;;;;5052676;28;20272;-50